createdAt,value
2019-04-20T00:01:42.788Z,72.30
2019-04-20T00:04:20.675Z,72.90
2019-04-20T00:06:48.569Z,72.20
2019-04-20T00:09:21.083Z,72.10
2019-04-20T00:12:00.085Z,72.60
2019-04-20T00:14:26.339Z,73.20
2019-04-20T00:16:52.759Z,74.00
2019-04-20T00:19:29.257Z,75.30
2019-04-20T00:22:01.905Z,75.70
2019-04-20T00:24:43.841Z,76.00
2019-04-20T00:27:40.241Z,76.40
2019-04-20T00:29:58.733Z,76.80
2019-04-20T00:32:29.521Z,76.70
2019-04-20T00:34:48.879Z,75.80
2019-04-20T00:37:19.257Z,74.20
2019-04-20T00:39:48.901Z,73.50
2019-04-20T00:42:24.845Z,73.50
2019-04-20T00:44:56.350Z,73.50
2019-04-20T00:47:37.340Z,73.50
2019-04-20T00:50:08.000Z,73.40
2019-04-20T00:52:44.116Z,74.30
2019-04-20T00:54:58.095Z,75.30
2019-04-20T00:57:38.713Z,76.50
2019-04-20T01:00:17.710Z,77.30
2019-04-20T01:02:44.456Z,78.20
2019-04-20T01:05:24.322Z,79.30
2019-04-20T01:07:56.310Z,80.00
2019-04-20T01:10:23.651Z,80.40
2019-04-20T01:13:01.148Z,81.30
2019-04-20T01:15:36.319Z,82.00
2019-04-20T01:17:58.289Z,84.80
2019-04-20T01:20:29.473Z,86.20
2019-04-20T01:23:08.195Z,87.60
2019-04-20T01:25:40.164Z,89.70
2019-04-20T01:28:24.781Z,90.50
2019-04-20T01:30:44.622Z,91.30
2019-04-20T01:33:26.056Z,92.00
2019-04-20T01:36:00.697Z,92.90
2019-04-20T01:38:26.213Z,93.90
2019-04-20T01:40:44.760Z,94.70
2019-04-20T01:43:18.434Z,95.60
2019-04-20T01:45:52.581Z,96.40
2019-04-20T01:48:22.521Z,96.80
2019-04-20T01:50:59.648Z,97.30
2019-04-20T01:53:56.531Z,97.60
2019-04-20T01:56:27.901Z,97.90
2019-04-20T01:59:05.004Z,98.50
2019-04-20T02:01:39.665Z,98.90
2019-04-20T02:04:16.960Z,99.20
2019-04-20T02:06:47.185Z,99.60
2019-04-20T02:09:17.191Z,99.80
2019-04-20T02:11:47.377Z,99.90
2019-04-20T02:14:26.615Z,99.90
2019-04-20T02:16:51.527Z,99.90
2019-04-20T02:19:33.379Z,99.90
2019-04-20T02:22:03.988Z,99.90
2019-04-20T02:24:19.664Z,99.90
2019-04-20T02:26:51.559Z,99.90
2019-04-20T02:29:41.881Z,99.90
2019-04-20T02:34:59.797Z,99.90
2019-04-20T02:37:55.112Z,99.90
2019-04-20T02:47:47.810Z,99.90
2019-04-20T02:50:20.675Z,99.90
2019-04-20T02:55:24.060Z,99.90
2019-04-20T03:00:19.421Z,92.10
2019-04-20T03:02:41.534Z,90.10
2019-04-20T03:05:06.939Z,87.60
2019-04-20T03:07:41.493Z,87.50
2019-04-20T03:10:17.730Z,90.90
2019-04-20T03:12:50.629Z,92.10
2019-04-20T03:15:22.615Z,93.00
2019-04-20T03:17:58.654Z,93.50
2019-04-20T03:20:36.803Z,94.40
2019-04-20T03:25:58.388Z,95.10
2019-04-20T03:28:42.970Z,95.90
2019-04-20T03:32:10.342Z,94.90
2019-04-20T03:36:57.185Z,93.10
2019-04-20T03:39:18.069Z,93.30
2019-04-20T03:41:37.693Z,93.40
2019-04-20T03:44:08.988Z,92.90
2019-04-20T03:46:41.998Z,92.30
2019-04-20T03:49:36.606Z,92.30
2019-04-20T03:51:58.781Z,92.10
2019-04-20T03:54:24.982Z,92.00
2019-04-20T03:57:12.483Z,92.40
2019-04-20T03:59:50.639Z,92.20
2019-04-20T04:05:13.960Z,92.30
2019-04-20T04:07:35.396Z,92.90
2019-04-20T04:10:16.012Z,92.40
2019-04-20T04:13:11.761Z,92.40
2019-04-20T04:15:51.939Z,92.20
2019-04-20T04:18:25.980Z,92.00
2019-04-20T04:20:58.674Z,91.00
2019-04-20T04:23:38.092Z,90.00
2019-04-20T04:26:20.377Z,89.30
2019-04-20T04:28:41.197Z,89.30
2019-04-20T04:36:13.833Z,85.20
2019-04-20T04:38:53.345Z,83.60
2019-04-20T04:43:49.942Z,81.80
2019-04-20T04:46:08.110Z,80.40
2019-04-20T04:48:43.859Z,79.80
2019-04-20T04:51:18.520Z,79.10
2019-04-20T04:53:57.283Z,78.20
2019-04-20T04:56:18.885Z,78.50
2019-04-20T04:58:47.360Z,77.50
2019-04-20T05:01:22.440Z,76.20
2019-04-20T05:04:19.263Z,76.00
2019-04-20T05:06:35.598Z,74.40
2019-04-20T05:08:55.115Z,74.30
2019-04-20T05:11:21.923Z,72.40
2019-04-20T05:13:58.591Z,73.20
2019-04-20T05:16:40.987Z,70.80
2019-04-20T05:21:53.870Z,72.10
2019-04-20T05:24:28.836Z,72.40
2019-04-20T05:27:18.005Z,70.60
2019-04-20T05:29:29.616Z,70.50
2019-04-20T05:32:05.533Z,72.30
2019-04-20T05:34:52.592Z,71.70
2019-04-20T05:37:27.227Z,73.30
2019-04-20T05:39:50.885Z,73.60
2019-04-20T05:42:27.836Z,76.30
2019-04-20T05:44:55.921Z,75.90
2019-04-20T05:47:29.201Z,78.70
2019-04-20T05:49:56.081Z,79.40
2019-04-20T05:52:50.614Z,76.50
2019-04-20T05:54:57.309Z,72.40
2019-04-20T05:57:52.437Z,72.90
2019-04-20T06:00:07.209Z,74.00
2019-04-20T06:02:34.761Z,76.70
2019-04-20T06:05:23.680Z,72.70
2019-04-20T06:07:42.036Z,75.00
2019-04-20T06:10:18.522Z,71.70
2019-04-20T06:12:41.520Z,72.30
2019-04-20T06:15:10.699Z,72.10
2019-04-20T06:18:03.844Z,72.00
2019-04-20T06:23:33.805Z,71.80
2019-04-20T06:26:13.421Z,73.10
2019-04-20T06:28:26.740Z,72.10
2019-04-20T06:30:52.861Z,72.50
2019-04-20T06:36:55.844Z,71.90
2019-04-20T06:39:17.233Z,75.20
2019-04-20T06:42:02.258Z,74.60
2019-04-20T06:44:16.483Z,74.20
2019-04-20T06:46:48.643Z,73.80
2019-04-20T06:49:18.334Z,73.70
2019-04-20T06:52:01.682Z,74.00
2019-04-20T06:54:28.915Z,71.70
2019-04-20T06:57:07.342Z,71.00
2019-04-20T07:02:17.065Z,71.50
2019-04-20T07:04:50.705Z,71.00
2019-04-20T07:07:14.630Z,69.10
2019-04-20T07:12:17.129Z,66.80
2019-04-20T07:14:42.733Z,65.20
2019-04-20T07:17:39.177Z,65.60
2019-04-20T07:20:01.448Z,65.20
2019-04-20T07:22:49.258Z,66.40
2019-04-20T07:25:18.955Z,63.90
2019-04-20T07:27:49.285Z,60.80
2019-04-20T07:30:19.462Z,61.80
2019-04-20T07:32:56.450Z,61.20
2019-04-20T07:35:21.892Z,63.10
2019-04-20T07:40:20.123Z,63.00
2019-04-20T07:42:56.470Z,59.50
2019-04-20T07:45:31.666Z,59.80
2019-04-20T07:48:01.650Z,60.90
2019-04-20T07:50:26.754Z,63.70
2019-04-20T07:52:51.208Z,58.20
2019-04-20T07:58:01.632Z,57.50
2019-04-20T08:00:48.218Z,55.20
2019-04-20T08:03:35.178Z,56.30
2019-04-20T08:06:02.434Z,51.80
2019-04-20T08:08:40.350Z,52.00
2019-04-20T08:11:13.903Z,50.70
2019-04-20T08:13:51.680Z,52.00
2019-04-20T08:16:23.094Z,50.00
2019-04-20T08:18:55.201Z,54.40
2019-04-20T08:21:25.667Z,49.00
2019-04-20T08:23:55.406Z,50.70
2019-04-20T08:26:16.243Z,47.50
2019-04-20T08:28:50.819Z,48.70
2019-04-20T08:31:29.786Z,51.20
2019-04-20T08:34:39.719Z,49.00
2019-04-20T08:37:06.057Z,47.40
2019-04-20T08:39:51.077Z,48.20
2019-04-20T08:42:07.451Z,47.80
2019-04-20T08:44:58.970Z,48.40
2019-04-20T08:47:21.499Z,46.90
2019-04-20T08:50:11.987Z,46.00
2019-04-20T08:55:12.474Z,45.00
2019-04-20T08:57:22.533Z,44.50
2019-04-20T08:59:53.051Z,48.00
2019-04-20T09:02:23.880Z,46.00
2019-04-20T09:05:02.440Z,45.20
2019-04-20T09:07:28.239Z,46.60
2019-04-20T09:10:24.278Z,43.50
2019-04-20T09:12:45.040Z,42.70
2019-04-20T09:15:03.800Z,42.30
2019-04-20T09:17:44.999Z,47.50
2019-04-20T09:20:16.458Z,43.50
2019-04-20T09:23:02.252Z,45.30
2019-04-20T09:28:22.427Z,44.70
2019-04-20T09:31:18.455Z,44.90
2019-04-20T09:33:51.396Z,42.40
2019-04-20T09:36:18.240Z,41.80
2019-04-20T09:39:07.764Z,42.20
2019-04-20T09:41:46.642Z,46.70
2019-04-20T09:43:58.319Z,42.70
2019-04-20T09:46:30.950Z,43.00
2019-04-20T09:49:06.338Z,42.70
2019-04-20T09:51:51.167Z,44.40
2019-04-20T09:54:22.825Z,43.60
2019-04-20T09:56:55.590Z,41.40
2019-04-20T09:59:26.590Z,43.30
2019-04-20T10:01:44.842Z,42.30
2019-04-20T10:04:07.624Z,46.50
2019-04-20T10:06:39.302Z,44.50
2019-04-20T10:09:11.515Z,43.30
2019-04-20T10:11:43.712Z,41.30
2019-04-20T10:14:12.499Z,42.20
2019-04-20T10:16:42.023Z,41.30
2019-04-20T10:19:11.969Z,43.80
2019-04-20T10:21:43.655Z,43.60
2019-04-20T10:24:13.099Z,43.60
2019-04-20T10:26:42.745Z,44.50
2019-04-20T10:29:15.358Z,46.50
2019-04-20T10:31:51.409Z,42.50
2019-04-20T10:34:15.865Z,45.10
2019-04-20T10:36:51.399Z,44.20
2019-04-20T10:39:28.776Z,44.00
2019-04-20T10:42:02.087Z,43.90
2019-04-20T10:44:32.682Z,44.10
2019-04-20T10:47:05.218Z,42.40
2019-04-20T10:49:35.307Z,44.20
2019-04-20T10:52:05.599Z,44.80
2019-04-20T10:54:34.719Z,44.10
2019-04-20T10:57:05.764Z,42.50
2019-04-20T10:59:35.378Z,42.40
2019-04-20T11:02:05.658Z,42.70
2019-04-20T11:04:35.159Z,45.00
2019-04-20T11:07:04.826Z,43.20
2019-04-20T11:09:34.608Z,40.80
2019-04-20T11:12:06.274Z,41.80
2019-04-20T11:14:40.088Z,40.30
2019-04-20T11:17:06.962Z,43.70
2019-04-20T11:19:37.119Z,42.20
2019-04-20T11:22:08.399Z,40.70
2019-04-20T11:24:39.019Z,40.40
2019-04-20T11:27:09.922Z,41.10
2019-04-20T11:29:40.268Z,40.50
2019-04-20T11:32:12.335Z,41.80
2019-04-20T11:34:42.463Z,41.80
2019-04-20T11:37:12.986Z,39.60
2019-04-20T11:39:45.310Z,40.10
2019-04-20T11:42:14.960Z,40.90
2019-04-20T11:44:44.783Z,38.50
2019-04-20T11:47:16.645Z,38.80
2019-04-20T11:49:46.519Z,39.10
2019-04-20T11:52:19.396Z,41.60
2019-04-20T11:54:48.391Z,40.80
2019-04-20T11:57:19.510Z,42.30
2019-04-20T11:59:48.765Z,40.00
2019-04-20T12:02:26.985Z,41.60
2019-04-20T12:05:10.236Z,38.70
2019-04-20T12:07:28.909Z,39.70
2019-04-20T12:10:09.141Z,37.70
2019-04-20T12:12:38.972Z,37.80
2019-04-20T12:15:06.486Z,36.70
2019-04-20T12:17:37.726Z,38.70
2019-04-20T12:20:08.355Z,37.70
2019-04-20T12:22:37.923Z,38.20
2019-04-20T12:25:07.953Z,37.90
2019-04-20T12:27:42.030Z,38.80
2019-04-20T12:30:13.341Z,40.70
2019-04-20T12:32:51.905Z,41.50
2019-04-20T12:35:18.157Z,43.50
2019-04-20T12:37:51.340Z,40.50
2019-04-20T12:40:22.139Z,40.50
2019-04-20T12:42:53.050Z,40.40
2019-04-20T12:45:26.679Z,39.00
2019-04-20T12:47:55.880Z,39.80
2019-04-20T12:50:25.702Z,39.80
2019-04-20T12:52:56.647Z,40.10
2019-04-20T12:55:34.696Z,41.60
2019-04-20T12:58:04.976Z,39.50
2019-04-20T13:00:49.621Z,38.10
2019-04-20T13:03:21.413Z,38.20
2019-04-20T13:05:51.883Z,39.70
2019-04-20T13:08:28.580Z,40.70
2019-04-20T13:11:02.444Z,42.60
2019-04-20T13:14:02.278Z,42.70
2019-04-20T13:16:38.955Z,36.90
2019-04-20T13:19:11.445Z,39.80
2019-04-20T13:21:40.962Z,37.80
2019-04-20T13:24:11.383Z,40.40
2019-04-20T13:26:40.925Z,41.70
2019-04-20T13:29:13.280Z,39.60
2019-04-20T13:31:42.302Z,39.30
2019-04-20T13:34:13.148Z,37.70
2019-04-20T13:36:42.423Z,38.30
2019-04-20T13:39:12.247Z,38.40
2019-04-20T13:41:42.285Z,40.10
2019-04-20T13:44:15.781Z,38.80
2019-04-20T13:46:49.181Z,40.40
2019-04-20T13:49:18.785Z,39.80
2019-04-20T13:51:59.566Z,38.50
2019-04-20T13:54:29.878Z,40.00
2019-04-20T13:57:01.842Z,39.30
2019-04-20T13:59:48.162Z,38.30
2019-04-20T14:02:22.762Z,39.20
2019-04-20T14:04:54.849Z,38.20
2019-04-20T14:07:26.955Z,39.90
2019-04-20T14:10:03.725Z,39.70
2019-04-20T14:12:44.519Z,38.60
2019-04-20T14:15:13.214Z,37.60
2019-04-20T14:17:43.381Z,39.70
2019-04-20T14:20:15.819Z,37.90
2019-04-20T14:22:45.103Z,38.60
2019-04-20T14:25:15.353Z,37.20
2019-04-20T14:27:44.941Z,37.20
2019-04-20T14:30:15.205Z,36.20
2019-04-20T14:32:45.380Z,36.60
2019-04-20T14:35:15.159Z,39.80
2019-04-20T14:37:45.904Z,37.60
2019-04-20T14:40:16.666Z,38.70
2019-04-20T14:42:49.956Z,36.60
2019-04-20T14:45:20.544Z,39.30
2019-04-20T14:47:52.159Z,39.00
2019-04-20T14:50:25.533Z,37.50
2019-04-20T14:52:57.862Z,36.80
2019-04-20T14:55:29.258Z,36.10
2019-04-20T14:58:01.497Z,37.80
2019-04-20T15:00:51.018Z,38.50
2019-04-20T15:03:30.211Z,36.20
2019-04-20T15:06:02.040Z,36.10
2019-04-20T15:08:32.511Z,37.70
2019-04-20T15:11:05.057Z,38.30
2019-04-20T15:13:40.652Z,36.80
2019-04-20T15:16:10.876Z,37.90
2019-04-20T15:18:41.908Z,36.80
2019-04-20T15:21:19.622Z,35.70
2019-04-20T15:23:49.320Z,36.90
2019-04-20T15:26:20.444Z,35.90
2019-04-20T15:28:52.517Z,36.00
2019-04-20T15:31:21.921Z,36.70
2019-04-20T15:33:51.119Z,36.40
2019-04-20T15:36:20.541Z,36.20
2019-04-20T15:38:49.761Z,36.40
2019-04-20T15:41:19.004Z,37.10
2019-04-20T15:43:49.193Z,36.40
2019-04-20T15:46:19.404Z,38.00
2019-04-20T15:48:50.620Z,36.10
2019-04-20T15:51:20.066Z,36.50
2019-04-20T15:53:49.563Z,35.50
2019-04-20T15:56:20.614Z,36.00
2019-04-20T15:58:50.463Z,37.20
2019-04-20T16:01:23.408Z,35.90
2019-04-20T16:03:55.277Z,35.70
2019-04-20T16:06:25.286Z,37.30
2019-04-20T16:08:56.478Z,34.90
2019-04-20T16:11:26.646Z,37.00
2019-04-20T16:13:58.190Z,36.20
2019-04-20T16:16:27.857Z,36.30
2019-04-20T16:18:57.140Z,36.40
2019-04-20T16:21:29.654Z,36.40
2019-04-20T16:23:58.951Z,36.50
2019-04-20T16:26:31.488Z,37.90
2019-04-20T16:29:01.844Z,36.70
2019-04-20T16:31:34.200Z,37.40
2019-04-20T16:34:05.316Z,37.10
2019-04-20T16:36:38.759Z,38.10
2019-04-20T16:39:16.399Z,36.90
2019-04-20T16:41:42.581Z,37.50
2019-04-20T16:44:13.340Z,39.00
2019-04-20T16:46:42.583Z,37.90
2019-04-20T16:49:14.546Z,36.70
2019-04-20T16:51:45.073Z,37.00
2019-04-20T16:54:17.470Z,36.70
2019-04-20T16:56:48.562Z,37.00
2019-04-20T16:59:19.326Z,37.20
2019-04-20T17:01:52.203Z,38.20
2019-04-20T17:04:25.109Z,38.50
2019-04-20T17:07:16.526Z,38.10
2019-04-20T17:09:51.831Z,38.50
2019-04-20T17:12:23.742Z,38.10
2019-04-20T17:14:53.724Z,39.00
2019-04-20T17:17:23.166Z,38.30
2019-04-20T17:19:53.502Z,38.60
2019-04-20T17:22:25.559Z,38.10
2019-04-20T17:24:55.669Z,38.90
2019-04-20T17:27:37.163Z,39.00
2019-04-20T17:30:10.539Z,39.60
2019-04-20T17:32:41.246Z,39.90
2019-04-20T17:35:20.652Z,39.90
2019-04-20T17:37:45.281Z,39.80
2019-04-20T17:40:33.856Z,40.00
2019-04-20T17:42:59.972Z,39.50
2019-04-20T17:45:32.371Z,39.80
2019-04-20T17:48:08.920Z,40.30
2019-04-20T17:50:46.749Z,40.40
2019-04-20T17:53:10.149Z,41.20
2019-04-20T17:55:41.066Z,41.10
2019-04-20T17:58:13.768Z,41.20
2019-04-20T18:00:51.107Z,41.60
2019-04-20T18:03:58.506Z,41.60
2019-04-20T18:06:14.538Z,42.00
2019-04-20T18:08:45.856Z,42.30
2019-04-20T18:11:07.705Z,42.70
2019-04-20T18:13:34.104Z,43.00
2019-04-20T18:16:32.613Z,43.00
2019-04-20T18:19:02.028Z,43.70
2019-04-20T18:21:38.455Z,44.10
2019-04-20T18:24:14.518Z,44.30
2019-04-20T18:26:54.804Z,44.40
2019-04-20T18:29:32.277Z,44.70
2019-04-20T18:31:43.752Z,44.90
2019-04-20T18:34:20.644Z,44.70
2019-04-20T18:36:50.815Z,44.80
2019-04-20T18:39:29.163Z,44.40
2019-04-20T18:41:57.128Z,44.60
2019-04-20T18:44:30.626Z,44.60
2019-04-20T18:47:16.760Z,44.90
2019-04-20T18:49:38.678Z,45.00
2019-04-20T18:51:57.980Z,44.80
2019-04-20T18:54:32.305Z,44.80
2019-04-20T18:56:59.862Z,44.60
2019-04-20T18:59:39.968Z,45.00
2019-04-20T19:02:06.821Z,44.80
2019-04-20T19:04:33.178Z,44.80
2019-04-20T19:07:03.644Z,45.10
2019-04-20T19:09:34.660Z,44.90
2019-04-20T19:12:07.480Z,45.00
2019-04-20T19:14:49.932Z,44.80
2019-04-20T19:17:49.759Z,44.70
2019-04-20T19:20:15.920Z,44.90
2019-04-20T19:22:46.143Z,44.50
2019-04-20T19:25:18.371Z,44.50
2019-04-20T19:27:51.105Z,44.20
2019-04-20T19:30:31.378Z,44.40
2019-04-20T19:33:09.047Z,44.50
2019-04-20T19:35:34.057Z,44.60
2019-04-20T19:38:05.003Z,44.50
2019-04-20T19:40:34.382Z,44.90
2019-04-20T19:43:11.096Z,44.30
2019-04-20T19:45:46.608Z,44.40
2019-04-20T19:48:14.592Z,45.00
2019-04-20T19:50:56.029Z,44.50
2019-04-20T19:53:26.483Z,44.20
2019-04-20T19:55:47.802Z,44.20
2019-04-20T19:58:20.766Z,44.30
2019-04-20T20:00:51.781Z,44.50
2019-04-20T20:03:19.875Z,44.60
2019-04-20T20:05:53.806Z,44.80
2019-04-20T20:08:25.933Z,44.30
2019-04-20T20:11:02.805Z,44.50
2019-04-20T20:13:41.088Z,45.00
2019-04-20T20:16:10.695Z,45.10
2019-04-20T20:18:53.367Z,45.60
2019-04-20T20:21:23.726Z,45.30
2019-04-20T20:23:47.885Z,45.00
2019-04-20T20:26:24.906Z,45.50
2019-04-20T20:29:03.903Z,46.40
2019-04-20T20:31:38.452Z,46.20
2019-04-20T20:34:07.344Z,46.30
2019-04-20T20:36:38.377Z,46.60
2019-04-20T20:39:10.194Z,46.70
2019-04-20T20:41:49.025Z,46.60
2019-04-20T20:44:24.301Z,46.20
2019-04-20T20:47:00.819Z,46.20
2019-04-20T20:49:37.083Z,46.20
2019-04-20T20:52:10.172Z,46.10
2019-04-20T20:54:33.559Z,46.30
2019-04-20T20:57:03.818Z,46.40
2019-04-20T20:59:39.556Z,47.00
2019-04-20T21:02:06.718Z,46.40
2019-04-20T21:04:33.192Z,46.50
2019-04-20T21:07:04.670Z,46.40
2019-04-20T21:09:37.578Z,46.40
2019-04-20T21:12:13.858Z,46.60
2019-04-20T21:14:40.553Z,46.70
2019-04-20T21:17:16.020Z,46.80
2019-04-20T21:20:00.929Z,47.30
2019-04-20T21:22:26.871Z,47.30
2019-04-20T21:24:53.067Z,47.60
2019-04-20T21:27:24.061Z,48.00
2019-04-20T21:29:58.222Z,48.40
2019-04-20T21:32:28.222Z,48.60
2019-04-20T21:35:01.498Z,48.60
2019-04-20T21:37:34.733Z,48.80
2019-04-20T21:40:21.290Z,48.70
2019-04-20T21:42:44.549Z,48.70
2019-04-20T21:45:20.116Z,48.70
2019-04-20T21:47:44.480Z,48.80
2019-04-20T21:50:31.214Z,48.90
2019-04-20T21:52:48.475Z,48.80
2019-04-20T21:55:16.289Z,48.80
2019-04-20T21:57:51.687Z,49.10
2019-04-20T22:00:41.860Z,48.70
2019-04-20T22:03:07.754Z,48.70
2019-04-20T22:05:38.042Z,49.20
2019-04-20T22:08:11.038Z,49.20
2019-04-20T22:10:41.279Z,49.60
2019-04-20T22:13:11.931Z,49.60
2019-04-20T22:15:51.825Z,49.40
2019-04-20T22:18:18.089Z,49.60
2019-04-20T22:21:01.727Z,50.00
2019-04-20T22:23:38.820Z,50.20
2019-04-20T22:26:05.130Z,50.20
2019-04-20T22:28:22.267Z,49.90
2019-04-20T22:30:52.121Z,50.00
2019-04-20T22:33:33.608Z,50.30
2019-04-20T22:36:04.132Z,50.20
2019-04-20T22:38:37.639Z,50.10
2019-04-20T22:41:13.603Z,51.30
2019-04-20T22:43:39.398Z,51.60
2019-04-20T22:48:50.940Z,52.00
2019-04-20T22:51:30.145Z,51.60
2019-04-20T22:53:58.304Z,52.40
2019-04-20T22:56:35.447Z,52.80
2019-04-20T22:58:56.391Z,52.50
2019-04-20T23:01:31.353Z,53.20
2019-04-20T23:03:54.795Z,53.20
2019-04-20T23:06:33.385Z,53.00
2019-04-20T23:09:05.681Z,52.50
2019-04-20T23:11:33.535Z,52.10
2019-04-20T23:14:11.762Z,52.30
2019-04-20T23:16:49.241Z,52.50
2019-04-20T23:19:28.757Z,52.90
2019-04-20T23:21:58.998Z,53.50
2019-04-20T23:24:27.105Z,53.80
2019-04-20T23:26:57.363Z,54.10
2019-04-20T23:29:32.702Z,54.20
2019-04-20T23:32:04.205Z,54.30
2019-04-20T23:34:34.078Z,54.40
2019-04-20T23:37:06.759Z,54.60
2019-04-20T23:39:40.595Z,54.60
2019-04-20T23:42:11.274Z,54.40
2019-04-20T23:44:54.174Z,54.40
2019-04-20T23:47:32.477Z,54.50
2019-04-20T23:50:19.200Z,54.80
2019-04-20T23:52:59.679Z,54.70
2019-04-20T23:55:15.735Z,54.80
2019-04-20T23:57:45.981Z,54.60
